Time;durP1;ratioP1;P1;durP2;ratioP2;P2;SDS_P1;SDS_P2;PMS_P1;PMS_P2;Temp;Humidity;BMP_temperature;BMP_pressure;BME280_temperature;BME280_humidity;BME280_pressure;Samples;Min_cycle;Max_cycle;Signal;HPM_P1;HPM_P2
2022/12/02 00:00:27;;;;;;;69.57;25.35;;;;;;;3.78;100.00;102264.78;10415840;28;20451;-64
2022/12/02 00:05:33;;;;;;;67.60;26.60;;;;;;;3.72;100.00;102263.00;10416562;28;20114;-64
2022/12/02 00:10:37;;;;;;;68.22;26.20;;;;;;;3.68;100.00;102261.25;10415885;28;20077;-64
2022/12/02 00:15:43;;;;;;;62.47;26.58;;;;;;;3.59;100.00;102262.91;10415419;28;20574;-65
2022/12/02 00:20:46;;;;;;;68.32;26.30;;;;;;;3.51;100.00;102256.78;10415271;28;20467;-64
2022/12/02 00:25:50;;;;;;;60.42;24.65;;;;;;;3.51;100.00;102259.38;10413215;28;20049;-64
2022/12/02 00:30:53;;;;;;;48.90;23.17;;;;;;;3.39;100.00;102254.09;10415111;28;20053;-72
2022/12/02 00:35:55;;;;;;;52.83;22.98;;;;;;;3.33;100.00;102242.88;10414817;28;20109;-72
2022/12/02 00:40:56;;;;;;;54.05;24.05;;;;;;;3.33;100.00;102235.13;10414537;28;20085;-72
2022/12/02 00:51:19;;;;;;;55.42;21.40;;;;;;;3.27;100.00;102234.16;10414486;28;20102;-65
2022/12/02 00:56:21;;;;;;;53.67;22.80;;;;;;;3.22;100.00;102228.97;10411667;28;20103;-65
2022/12/02 01:01:24;;;;;;;55.55;25.42;;;;;;;3.25;100.00;102220.41;10413162;28;20087;-65
2022/12/02 01:06:26;;;;;;;57.15;24.33;;;;;;;3.17;100.00;102222.88;10413942;28;20049;-64
2022/12/02 01:11:28;;;;;;;57.33;25.17;;;;;;;3.22;100.00;102221.25;10413633;28;20083;-64
2022/12/02 01:16:31;;;;;;;65.57;26.00;;;;;;;3.17;100.00;102218.59;10413417;28;20049;-64
2022/12/02 01:21:32;;;;;;;63.22;26.08;;;;;;;3.20;100.00;102225.50;10413070;28;20060;-72
2022/12/02 01:26:35;;;;;;;58.17;23.83;;;;;;;3.09;100.00;102221.09;10410469;28;20489;-71
2022/12/02 01:31:38;;;;;;;58.10;26.40;;;;;;;3.11;100.00;102218.53;10412950;28;20083;-72
2022/12/02 01:36:41;;;;;;;54.05;24.90;;;;;;;3.10;100.00;102221.97;10412779;28;20500;-73
2022/12/02 01:41:43;;;;;;;61.08;23.40;;;;;;;3.05;100.00;102219.31;10412634;28;20057;-73
2022/12/02 01:46:47;;;;;;;56.05;25.50;;;;;;;3.06;100.00;102221.06;10412308;28;20059;-73
2022/12/02 01:51:49;;;;;;;58.00;24.27;;;;;;;3.07;100.00;102220.22;10412088;28;20560;-73
2022/12/02 01:56:52;;;;;;;61.97;25.20;;;;;;;3.07;100.00;102217.63;10410038;28;20049;-72
2022/12/02 02:01:55;;;;;;;52.13;22.63;;;;;;;3.06;100.00;102215.03;10411867;28;20085;-72
2022/12/02 02:06:58;;;;;;;51.70;22.52;;;;;;;2.96;100.00;102208.91;10411877;28;20098;-72
2022/12/02 02:12:00;;;;;;;48.03;20.45;;;;;;;2.90;100.00;102221.72;10413805;28;20049;-72
2022/12/02 02:17:03;;;;;;;56.80;21.63;;;;;;;2.88;100.00;102200.22;10425912;28;20103;-72
2022/12/02 02:22:12;;;;;;;63.92;24.05;;;;;;;2.82;100.00;102212.22;10425204;28;20055;-72
2022/12/02 02:27:16;;;;;;;60.90;23.88;;;;;;;2.70;100.00;102212.91;10422986;28;20117;-73
2022/12/02 02:32:17;;;;;;;45.17;19.08;;;;;;;2.64;100.00;102206.81;10424758;28;20607;-73
2022/12/02 02:37:19;;;;;;;51.13;22.63;;;;;;;2.70;100.00;102207.75;10425164;28;20106;-73
2022/12/02 02:42:22;;;;;;;59.60;24.35;;;;;;;2.69;100.00;102206.03;10425205;28;20207;-73
2022/12/02 02:47:26;;;;;;;52.92;23.17;;;;;;;2.67;100.00;102192.25;10424650;28;20053;-73
2022/12/02 02:52:28;;;;;;;59.05;23.38;;;;;;;2.61;100.00;102191.31;10424666;28;20091;-73
2022/12/02 02:57:39;;;;;;;51.95;21.35;;;;;;;2.51;100.00;102190.31;10422467;28;20118;-73
2022/12/02 03:02:43;;;;;;;51.92;21.83;;;;;;;2.46;100.00;102184.25;10424779;28;20053;-72
2022/12/02 03:07:47;;;;;;;55.88;21.15;;;;;;;2.45;100.00;102183.38;10424873;28;20098;-72
2022/12/02 03:12:52;;;;;;;55.80;22.55;;;;;;;2.32;100.00;102172.03;10424138;28;20074;-72
2022/12/02 03:17:56;;;;;;;50.10;22.10;;;;;;;2.37;100.00;102167.81;10424452;28;20056;-65
2022/12/02 03:22:57;;;;;;;43.58;18.92;;;;;;;2.22;100.00;102165.88;10423636;28;20060;-72
2022/12/02 03:28:01;;;;;;;35.90;19.67;;;;;;;2.14;100.00;102164.91;10418155;28;20118;-72
2022/12/02 03:33:04;;;;;;;44.10;18.08;;;;;;;2.19;100.00;102168.44;10417967;28;20079;-72
2022/12/02 03:38:05;;;;;;;45.58;18.52;;;;;;;2.17;100.00;102175.28;10417714;28;20045;-72
2022/12/02 03:43:09;;;;;;;42.83;20.35;;;;;;;2.06;100.00;102172.53;10417318;28;20129;-73
2022/12/02 03:48:12;;;;;;;45.22;21.13;;;;;;;2.12;100.00;102156.31;10416713;28;20064;-72
2022/12/02 03:53:14;;;;;;;39.75;18.40;;;;;;;2.05;100.00;102156.22;10416502;28;20128;-73
2022/12/02 03:58:17;;;;;;;47.88;19.80;;;;;;;1.97;100.00;102155.25;10413946;28;20057;-73
2022/12/02 04:03:19;;;;;;;42.95;18.10;;;;;;;1.94;100.00;102137.16;10416290;28;20080;-73
2022/12/02 04:08:21;;;;;;;41.80;18.87;;;;;;;1.89;100.00;102138.81;10416804;28;20403;-73
2022/12/02 04:13:24;;;;;;;39.28;18.40;;;;;;;1.90;100.00;102140.53;10415807;28;20079;-73
2022/12/02 04:18:26;;;;;;;40.90;17.15;;;;;;;1.91;100.00;102143.16;10416032;28;20061;-73
2022/12/02 04:23:27;;;;;;;44.10;18.27;;;;;;;1.93;100.00;102136.31;10414188;28;20069;-73
2022/12/02 04:28:30;;;;;;;45.17;18.77;;;;;;;1.92;100.00;102136.28;10414940;28;20570;-65
2022/12/02 04:33:32;;;;;;;43.95;18.42;;;;;;;1.88;100.00;102131.94;10414639;28;20080;-65
2022/12/02 04:38:33;;;;;;;37.90;17.40;;;;;;;1.85;100.00;102132.75;10414783;28;20067;-65
2022/12/02 04:43:36;;;;;;;36.35;15.38;;;;;;;1.78;100.00;102136.94;10414627;28;20059;-64
2022/12/02 04:48:38;;;;;;;33.28;15.85;;;;;;;1.79;100.00;102128.38;10414373;28;20061;-64
2022/12/02 04:53:40;;;;;;;29.27;13.80;;;;;;;1.76;100.00;102117.16;10411824;28;20093;-65
2022/12/02 04:58:43;;;;;;;36.17;15.95;;;;;;;1.72;100.00;102117.97;10413591;28;20088;-65
2022/12/02 05:03:45;;;;;;;32.63;13.68;;;;;;;1.76;100.00;102115.47;10414281;28;20062;-64
2022/12/02 05:08:49;;;;;;;31.65;14.20;;;;;;;1.74;100.00;102114.56;10413661;28;20106;-65
2022/12/02 05:13:52;;;;;;;25.27;11.80;;;;;;;1.69;100.00;102117.91;10413357;28;20082;-64
2022/12/02 05:18:53;;;;;;;34.95;14.35;;;;;;;1.70;100.00;102102.50;10413834;28;20173;-65
2022/12/02 05:23:55;;;;;;;38.60;13.93;;;;;;;1.73;100.00;102101.69;10410427;28;20059;-65
2022/12/02 05:28:59;;;;;;;35.80;15.40;;;;;;;1.74;100.00;102099.13;10413095;28;20352;-65
2022/12/02 05:34:04;;;;;;;33.47;14.10;;;;;;;1.70;100.00;102099.03;10412736;28;20308;-64
2022/12/02 05:39:06;;;;;;;25.10;12.60;;;;;;;1.68;100.00;102109.34;10412449;28;20053;-65
2022/12/02 05:44:22;;;;;;;32.38;13.73;;;;;;;1.72;100.00;102090.53;10412478;28;20116;-65
2022/12/02 05:49:24;;;;;;;29.45;13.43;;;;;;;1.71;100.00;102093.94;10411434;28;20107;-64
2022/12/02 05:54:28;;;;;;;29.90;13.55;;;;;;;1.65;100.00;102088.72;10409814;28;20075;-73
2022/12/02 05:59:31;;;;;;;29.60;13.13;;;;;;;1.65;100.00;102093.84;10412124;28;20092;-72
2022/12/02 06:04:33;;;;;;;33.15;13.32;;;;;;;1.69;100.00;102090.47;10411983;28;20057;-73
2022/12/02 06:09:35;;;;;;;27.90;12.18;;;;;;;1.70;100.00;102094.78;10411763;28;20065;-73
2022/12/02 06:14:38;;;;;;;26.20;11.57;;;;;;;1.67;100.00;102093.03;10411909;28;20086;-73
2022/12/02 06:19:45;;;;;;;24.75;10.50;;;;;;;1.63;100.00;102101.53;10411926;28;20068;-73
2022/12/02 06:24:47;;;;;;;28.23;12.40;;;;;;;1.67;100.00;102098.19;10409360;28;20525;-73
2022/12/02 06:29:56;;;;;;;32.97;14.30;;;;;;;1.70;100.00;102092.19;10411867;28;20573;-72
2022/12/02 06:34:57;;;;;;;41.53;16.50;;;;;;;1.63;100.00;102096.41;10411197;28;20077;-72
2022/12/02 06:40:00;;;;;;;25.42;12.77;;;;;;;1.67;100.00;102094.72;10410313;28;20060;-73
2022/12/02 06:45:08;;;;;;;;;;;;;;;1.62;100.00;102096.38;10410694;28;20056;-73
2022/12/02 06:50:32;;;;;;;33.13;13.57;;;;;;;1.65;100.00;102093.84;10409654;28;19944;-73
2022/12/02 06:55:37;;;;;;;29.95;12.68;;;;;;;1.65;100.00;102093.84;10407197;28;20105;-73
2022/12/02 07:00:40;;;;;;;26.20;11.35;;;;;;;1.64;100.00;102086.97;10412991;28;20077;-73
2022/12/02 07:05:42;;;;;;;23.20;11.25;;;;;;;1.61;100.00;102097.22;10416915;28;20496;-72
2022/12/02 07:10:45;;;;;;;28.60;11.57;;;;;;;1.59;100.00;102098.91;10416618;28;20508;-72
2022/12/02 07:15:48;;;;;;;25.00;9.73;;;;;;;1.56;100.00;102109.13;10416970;28;20400;-72
2022/12/02 07:20:50;;;;;;;25.10;11.60;;;;;;;1.58;100.00;102102.31;10416783;28;20073;-73
2022/12/02 07:25:54;;;;;;;24.17;10.53;;;;;;;1.57;100.00;102105.75;10413634;28;20431;-72
2022/12/02 07:31:01;;;;;;;21.98;10.20;;;;;;;1.60;100.00;102100.63;10416138;28;20063;-73
2022/12/02 07:36:03;;;;;;;26.33;11.25;;;;;;;1.61;100.00;102099.78;10415517;28;20076;-73
2022/12/02 07:41:05;;;;;;;23.88;10.95;;;;;;;1.65;100.00;102099.00;10415728;28;20132;-73
2022/12/02 07:46:08;;;;;;;21.98;9.32;;;;;;;1.61;100.00;102092.06;10415634;28;20084;-73
2022/12/02 07:51:10;;;;;;;26.75;11.50;;;;;;;1.64;100.00;102095.56;10416320;28;20068;-73
2022/12/02 07:56:12;;;;;;;24.58;11.52;;;;;;;1.62;100.00;102094.69;10413911;28;20488;-72
2022/12/02 08:01:15;;;;;;;27.02;11.63;;;;;;;1.65;100.00;102099.84;10416021;28;20080;-72
2022/12/02 08:06:18;;;;;;;24.17;11.20;;;;;;;1.61;100.00;102098.06;10416415;28;20070;-72
2022/12/02 08:11:21;;;;;;;18.83;10.45;;;;;;;1.63;100.00;102108.38;10415219;28;20529;-72
2022/12/02 08:16:24;;;;;;;27.07;10.97;;;;;;;1.65;100.00;102101.56;10415810;28;20084;-72
2022/12/02 08:21:26;;;;;;;25.00;10.30;;;;;;;1.67;100.00;102102.44;10415202;28;20319;-72
2022/12/02 08:26:27;;;;;;;22.40;11.10;;;;;;;1.63;100.00;102096.41;10409832;28;20066;-72
2022/12/02 08:31:30;;;;;;;22.67;10.75;;;;;;;1.67;100.00;102097.28;10415567;28;20057;-72
2022/12/02 08:36:34;;;;;;;25.38;11.45;;;;;;;1.69;100.00;102100.78;10414345;28;20139;-72
2022/12/02 08:41:37;;;;;;;25.15;11.50;;;;;;;1.67;100.00;102097.28;10414524;28;20062;-72
2022/12/02 08:46:40;;;;;;;24.45;11.45;;;;;;;1.66;100.00;102093.00;10415069;28;20054;-72
2022/12/02 08:51:42;;;;;;;29.23;11.95;;;;;;;1.68;100.00;102099.06;10414551;28;20110;-72
2022/12/02 08:56:45;;;;;;;26.97;12.77;;;;;;;1.64;100.00;102097.28;10412908;28;20073;-72
2022/12/02 09:01:48;;;;;;;26.95;12.98;;;;;;;1.60;100.00;102090.31;10412129;28;20093;-72
2022/12/02 09:06:50;;;;;;;30.33;13.30;;;;;;;1.52;100.00;102093.66;10409071;28;20069;-72
2022/12/02 09:11:51;;;;;;;26.27;11.35;;;;;;;1.57;100.00;102091.16;10413955;28;20056;-72
2022/12/02 09:16:54;;;;;;;28.10;12.43;;;;;;;1.56;100.00;102096.25;10414277;28;20101;-72
2022/12/02 09:21:56;;;;;;;26.15;11.30;;;;;;;1.49;100.00;102097.88;10413634;28;20859;-72
2022/12/02 09:26:59;;;;;;;30.87;10.57;;;;;;;1.42;100.00;102096.94;10411828;28;20067;-72
2022/12/02 09:32:02;;;;;;;25.75;12.02;;;;;;;1.45;100.00;102086.69;10414632;28;20077;-72
2022/12/02 09:37:05;;;;;;;22.30;10.75;;;;;;;1.53;100.00;102097.97;10414552;28;20129;-73
2022/12/02 09:42:08;;;;;;;21.02;9.50;;;;;;;1.41;100.00;102090.06;10413771;28;20068;-72
2022/12/02 09:47:13;;;;;;;21.38;10.13;;;;;;;1.48;100.00;102078.16;10413531;28;20645;-71
2022/12/02 09:52:20;;;;;;;20.58;9.35;;;;;;;1.48;100.00;102070.44;10413018;28;20117;-71
2022/12/02 09:57:28;;;;;;;24.83;10.20;;;;;;;1.59;100.00;102071.47;10411202;28;20692;-71
2022/12/02 10:02:40;;;;;;;27.05;9.82;;;;;;;1.69;100.00;102075.03;10413828;28;20088;-72
2022/12/02 10:07:44;;;;;;;;;;;;;;;1.64;100.00;102076.69;10414045;28;20543;-71
2022/12/02 10:12:47;;;;;;;18.58;9.90;;;;;;;1.67;100.00;102066.41;10413309;28;20029;-72
2022/12/02 10:17:50;;;;;;;;;;;;;;;1.59;100.00;102071.47;10414148;28;20068;-72
2022/12/02 10:23:11;;;;;;;22.02;9.05;;;;;;;1.66;100.00;102069.84;10413499;28;19943;-71
2022/12/02 10:28:27;;;;;;;24.00;11.35;;;;;;;1.68;100.00;102070.75;10411413;28;20124;-71
2022/12/02 10:33:33;;;;;;;22.33;10.20;;;;;;;1.59;100.00;102063.75;10414776;28;20081;-71
2022/12/02 10:38:39;;;;;;;27.25;9.30;;;;;;;1.71;100.00;102054.47;10421541;28;20100;-72
2022/12/02 10:43:43;;;;;;;21.63;7.32;;;;;;;1.55;100.00;102051.69;10421380;28;20208;-72
2022/12/02 10:48:47;;;;;;;30.85;12.70;;;;;;;1.74;100.00;102047.66;10421082;28;20060;-72
2022/12/02 10:53:56;;;;;;;32.88;12.32;;;;;;;1.75;100.00;102041.66;10419038;28;20087;-71
2022/12/02 10:58:58;;;;;;;28.48;11.18;;;;;;;1.76;100.00;102040.81;10421005;28;20151;-71
2022/12/02 11:04:01;;;;;;;38.30;14.65;;;;;;;1.84;100.00;102045.22;10420208;28;20062;-73
2022/12/02 11:09:04;;;;;;;28.58;11.02;;;;;;;1.97;100.00;102041.06;10420119;28;20065;-72
2022/12/02 11:14:11;;;;;;;34.72;12.90;;;;;;;1.98;100.00;102035.94;10418148;28;20082;-72
2022/12/02 11:19:46;;;;;;;31.33;11.68;;;;;;;2.06;100.00;102029.16;10417898;28;20726;-71
2022/12/02 11:24:48;;;;;;;41.97;13.52;;;;;;;2.09;100.00;102030.06;10394593;28;20045;-72
2022/12/02 11:30:35;;;;;;;35.63;13.10;;;;;;;2.11;100.00;102020.63;10419501;28;20045;-73
2022/12/02 11:36:14;;;;;;;34.47;14.55;;;;;;;2.09;100.00;102022.34;10418539;28;20761;-73
2022/12/02 11:41:16;;;;;;;32.72;13.85;;;;;;;2.26;100.00;102018.25;10418944;28;20060;-72
2022/12/02 11:46:20;;;;;;;35.15;13.63;;;;;;;2.27;100.00;102012.25;10417959;28;20062;-72
2022/12/02 11:51:38;;;;;;;33.70;11.93;;;;;;;2.22;100.00;102013.91;10418628;28;20119;-73
2022/12/02 11:56:42;;;;;;;39.13;15.38;;;;;;;2.28;100.00;102016.56;10416224;28;20104;-73
2022/12/02 12:01:44;;;;;;;42.53;13.80;;;;;;;2.21;100.00;102012.19;10417810;28;20087;-72
2022/12/02 12:06:56;;;;;;;42.07;14.00;;;;;;;2.21;100.00;102012.19;10417884;28;20058;-73
2022/12/02 12:12:15;;;;;;;;;;;;;;;2.13;100.00;102004.38;10418269;28;20507;-72
2022/12/02 12:17:43;;;;;;;31.15;11.93;;;;;;;2.11;100.00;102007.75;10417921;28;19975;-72
2022/12/02 12:22:46;;;;;;;57.25;12.73;;;;;;;2.04;100.00;101993.94;10417335;28;20392;-72
2022/12/02 12:27:49;;;;;;;36.25;12.80;;;;;;;2.04;100.00;101992.25;10415250;28;20627;-72
2022/12/02 12:32:50;;;;;;;34.28;13.55;;;;;;;2.01;100.00;101992.22;10416562;28;20554;-71
2022/12/02 12:37:53;;;;;;;33.07;13.33;;;;;;;2.02;100.00;101996.50;10416964;28;20085;-71
2022/12/02 12:42:55;;;;;;;33.45;13.38;;;;;;;2.07;100.00;101988.84;10416528;28;20131;-71
2022/12/02 12:47:57;;;;;;;29.43;12.17;;;;;;;1.97;100.00;101982.72;10416438;28;20059;-71
2022/12/02 12:53:00;;;;;;;31.10;11.90;;;;;;;1.90;100.00;101965.47;10416123;28;20599;-71
2022/12/02 12:58:02;;;;;;;28.35;12.25;;;;;;;1.98;100.00;101976.72;10413928;28;20403;-71
2022/12/02 13:03:04;;;;;;;38.08;14.18;;;;;;;2.11;100.00;101958.81;10415660;28;20061;-70
2022/12/02 13:08:07;;;;;;;47.23;13.63;;;;;;;2.27;100.00;101949.56;10415334;28;20462;-73
2022/12/02 13:13:09;;;;;;;22.83;9.90;;;;;;;2.26;100.00;101943.53;10415490;28;20114;-73
2022/12/02 13:18:12;;;;;;;22.80;8.43;;;;;;;2.23;100.00;101952.97;10415166;28;20670;-73
2022/12/02 13:23:15;;;;;;;27.15;11.93;;;;;;;2.27;100.00;101955.59;10415090;28;20121;-72
2022/12/02 13:28:16;;;;;;;22.08;10.43;;;;;;;2.29;100.00;101953.88;10412876;28;20064;-74
2022/12/02 13:33:19;;;;;;;30.10;11.50;;;;;;;2.39;100.00;101946.25;10414927;28;20064;-73
2022/12/02 13:38:22;;;;;;;24.98;11.20;;;;;;;2.28;100.00;101940.97;10414399;28;20467;-73
2022/12/02 13:43:25;;;;;;;24.80;9.23;;;;;;;2.23;100.00;101942.66;10414629;28;20065;-74
2022/12/02 13:48:27;;;;;;;11.45;4.97;;;;;;;2.18;100.00;101951.19;10414356;28;20122;-73
2022/12/02 13:53:30;;;;;;;16.53;8.63;;;;;;;2.18;100.00;101945.16;10414154;28;20507;-73
2022/12/02 13:58:32;;;;;;;22.98;9.75;;;;;;;2.17;100.00;101943.44;10411705;28;20114;-73
2022/12/02 14:03:33;;;;;;;18.50;8.53;;;;;;;1.99;100.00;101955.25;10414008;28;20059;-72
2022/12/02 14:08:36;;;;;;;20.88;8.77;;;;;;;2.06;100.00;101957.06;10413273;28;20108;-73
2022/12/02 14:13:38;;;;;;;20.15;8.30;;;;;;;1.98;100.00;101953.53;10413660;28;20078;-74
2022/12/02 14:18:40;;;;;;;23.30;9.13;;;;;;;2.04;100.00;101953.63;10413725;28;20063;-73
2022/12/02 14:23:43;;;;;;;20.07;7.60;;;;;;;2.00;100.00;101946.72;10411754;28;20064;-73
2022/12/02 14:28:44;;;;;;;22.45;9.35;;;;;;;2.06;100.00;101951.91;10412466;28;20316;-72
2022/12/02 14:33:46;;;;;;;21.88;9.32;;;;;;;1.96;100.00;101957.84;10412357;28;20748;-73
2022/12/02 14:38:49;;;;;;;15.10;8.00;;;;;;;1.94;100.00;101956.94;10412740;28;20121;-72
2022/12/02 14:43:51;;;;;;;15.07;7.38;;;;;;;1.87;100.00;101960.28;10413189;28;20062;-73
2022/12/02 14:48:54;;;;;;;;;;;;;;;1.77;100.00;101959.31;10413645;28;20072;-73
2022/12/02 14:53:57;;;;;;;16.80;6.47;;;;;;;1.76;100.00;101968.75;10410628;28;20775;-72
2022/12/02 14:58:59;;;;;;;15.00;7.75;;;;;;;1.76;100.00;101966.19;10412385;28;20136;-73
2022/12/02 15:04:00;;;;;;;17.85;9.02;;;;;;;1.72;100.00;101974.72;10412460;28;20447;-73
2022/12/02 15:09:04;;;;;;;17.47;8.23;;;;;;;1.64;100.00;101978.91;10412644;28;20085;-73
2022/12/02 15:14:06;;;;;;;15.48;8.07;;;;;;;1.57;100.00;101984.78;10412720;28;20414;-73
2022/12/02 15:19:08;;;;;;;21.33;10.53;;;;;;;1.54;100.00;101983.06;10412393;28;20061;-72
2022/12/02 15:24:12;;;;;;;31.60;11.43;;;;;;;1.48;100.00;101983.84;10417152;28;20069;-70
2022/12/02 15:29:14;;;;;;;20.25;10.60;;;;;;;1.41;100.00;101988.00;10419291;28;20313;-73
2022/12/02 15:34:15;;;;;;;11.87;8.03;;;;;;;1.31;100.00;101993.00;10419045;28;20133;-73
2022/12/02 15:39:18;;;;;;;32.00;14.80;;;;;;;1.31;100.00;101996.44;10419263;28;20065;-73
2022/12/02 15:44:20;;;;;;;26.98;13.65;;;;;;;1.28;100.00;101986.97;10418773;28;20384;-74
2022/12/02 15:49:22;;;;;;;31.48;12.90;;;;;;;1.22;100.00;101997.16;10414023;28;20115;-74
2022/12/02 15:54:27;;;;;;;33.90;16.73;;;;;;;1.27;100.00;101989.53;10416453;28;20113;-72
2022/12/02 15:59:28;;;;;;;22.85;11.65;;;;;;;1.21;100.00;101997.13;10418168;28;20098;-73
2022/12/02 16:04:32;;;;;;;33.83;17.20;;;;;;;1.26;100.00;101996.38;10414153;28;20195;-74
2022/12/02 16:09:35;;;;;;;42.05;17.75;;;;;;;1.24;100.00;102000.63;10417263;28;20155;-73
2022/12/02 16:14:37;;;;;;;36.85;17.17;;;;;;;1.21;100.00;102010.88;10417619;28;20440;-73
2022/12/02 16:19:38;;;;;;;46.90;20.55;;;;;;;1.19;100.00;102011.69;10417586;28;20065;-73
2022/12/02 16:24:42;;;;;;;33.07;17.27;;;;;;;1.15;100.00;102010.75;10415510;28;20528;-73
2022/12/02 16:29:44;;;;;;;31.48;16.00;;;;;;;1.07;100.00;102007.22;10418183;28;20126;-73
2022/12/02 16:34:48;;;;;;;42.53;19.87;;;;;;;1.06;100.00;102021.75;10421584;28;20124;-73
2022/12/02 16:39:51;;;;;;;50.40;21.60;;;;;;;1.04;100.00;102018.31;10416312;28;20125;-73
2022/12/02 16:44:53;;;;;;;29.20;13.27;;;;;;;0.95;100.00;102028.44;10417299;28;20060;-72
2022/12/02 16:49:55;;;;;;;39.78;18.67;;;;;;;0.95;100.00;102039.59;10415881;28;20515;-72
2022/12/02 16:54:58;;;;;;;45.97;17.17;;;;;;;1.00;100.00;102039.69;10411903;28;20086;-73
2022/12/02 17:00:00;;;;;;;37.20;17.10;;;;;;;0.94;100.00;102035.28;10414374;28;20087;-73
2022/12/02 17:05:03;;;;;;;33.13;15.57;;;;;;;0.95;100.00;102043.84;10414201;28;20118;-73
2022/12/02 17:10:08;;;;;;;39.70;15.57;;;;;;;0.95;100.00;102038.72;10413555;28;20135;-73
2022/12/02 17:15:12;;;;;;;33.22;13.57;;;;;;;0.96;100.00;102046.44;10413602;28;20078;-72
2022/12/02 17:20:14;;;;;;;29.70;13.32;;;;;;;0.96;100.00;102045.59;10413394;28;20506;-73
2022/12/02 17:25:18;;;;;;;17.70;10.93;;;;;;;0.94;100.00;102048.16;10410939;28;20060;-73
2022/12/02 17:30:20;;;;;;;27.02;12.65;;;;;;;0.93;100.00;102040.41;10413204;28;20094;-73
2022/12/02 17:35:21;;;;;;;24.23;13.13;;;;;;;0.94;100.00;102048.16;10412298;28;20082;-73
2022/12/02 17:40:24;;;;;;;30.73;15.57;;;;;;;0.94;100.00;102045.56;10412933;28;20132;-73
2022/12/02 17:45:26;;;;;;;35.47;15.77;;;;;;;0.97;100.00;102047.31;10411929;28;20314;-73
2022/12/02 17:50:28;;;;;;;30.77;13.67;;;;;;;0.99;100.00;102041.38;10412881;28;20062;-73
2022/12/02 17:55:32;;;;;;;32.23;14.23;;;;;;;0.97;100.00;102048.22;10409564;28;20091;-73
2022/12/02 18:00:33;;;;;;;25.40;13.65;;;;;;;0.96;100.00;102051.59;10412322;28;20097;-74
2022/12/02 18:05:36;;;;;;;27.50;13.53;;;;;;;0.99;100.00;102051.66;10408771;28;20196;-73
2022/12/02 18:10:40;;;;;;;29.35;14.40;;;;;;;0.99;100.00;102051.66;10406322;28;20059;-73
2022/12/02 18:15:41;;;;;;;30.75;13.30;;;;;;;0.98;100.00;102049.94;10412529;28;20077;-74
2022/12/02 18:20:43;;;;;;;31.63;14.75;;;;;;;0.98;100.00;102055.06;10411348;28;20059;-74
2022/12/02 18:25:47;;;;;;;27.67;14.20;;;;;;;0.97;100.00;102052.47;10410470;28;20563;-72
2022/12/02 18:30:49;;;;;;;26.13;14.65;;;;;;;0.96;100.00;102051.59;10411956;28;20065;-72
2022/12/02 18:35:54;;;;;;;17.88;10.85;;;;;;;0.95;100.00;102044.72;10411778;28;20081;-74
2022/12/02 18:40:57;;;;;;;29.85;14.95;;;;;;;0.95;100.00;102049.88;10411770;28;20067;-73
2022/12/02 18:46:00;;;;;;;25.92;12.48;;;;;;;0.96;100.00;102046.44;10412006;28;20063;-73
2022/12/02 18:51:02;;;;;;;32.10;14.88;;;;;;;0.94;100.00;102050.72;10411616;28;20113;-75
2022/12/02 18:56:05;;;;;;;35.88;16.60;;;;;;;0.88;100.00;102043.75;10413854;28;20084;-71
2022/12/02 19:01:07;;;;;;;32.88;15.13;;;;;;;0.88;100.00;102032.59;10419770;28;20099;-74
2022/12/02 19:06:10;;;;;;;15.90;8.90;;;;;;;0.81;100.00;102036.78;10419175;28;20462;-73
2022/12/02 19:11:13;;;;;;;24.48;13.23;;;;;;;0.81;100.00;102031.63;10418978;28;20121;-74
2022/12/02 19:16:16;;;;;;;24.67;12.45;;;;;;;0.82;100.00;102032.50;10419010;28;20434;-73
2022/12/02 19:21:18;;;;;;;30.42;13.77;;;;;;;0.84;100.00;102028.25;10418699;28;20064;-73
2022/12/02 19:26:22;;;;;;;25.77;13.73;;;;;;;0.80;100.00;102019.63;10416315;28;20221;-74
2022/12/02 19:31:24;;;;;;;28.88;11.65;;;;;;;0.79;100.00;102019.59;10418525;28;20117;-75
2022/12/02 19:36:26;;;;;;;21.83;10.97;;;;;;;0.79;100.00;102022.19;10418142;28;20092;-74
2022/12/02 19:41:29;;;;;;;24.20;12.02;;;;;;;0.75;100.00;102022.13;10417200;28;20319;-74
2022/12/02 19:46:31;;;;;;;20.05;11.35;;;;;;;0.72;100.00;102022.06;10417126;28;20113;-75
2022/12/02 19:51:32;;;;;;;18.73;10.57;;;;;;;0.73;100.00;102021.25;10417370;28;20067;-74
2022/12/02 19:56:35;;;;;;;17.50;10.30;;;;;;;0.75;100.00;102021.25;10414868;28;20075;-75
2022/12/02 20:01:37;;;;;;;19.77;10.60;;;;;;;0.73;100.00;102022.94;10418403;28;20392;-74
2022/12/02 20:06:38;;;;;;;11.80;8.00;;;;;;;0.74;100.00;102015.25;10417697;28;20059;-74
2022/12/02 20:11:44;;;;;;;20.57;9.17;;;;;;;0.74;100.00;102024.66;10417402;28;20091;-75
2022/12/02 20:16:46;;;;;;;20.65;10.85;;;;;;;0.75;100.00;102022.13;10417641;28;20483;-74
2022/12/02 20:21:49;;;;;;;19.67;11.07;;;;;;;0.75;100.00;102016.09;10417769;28;20119;-73
2022/12/02 20:26:52;;;;;;;23.23;9.70;;;;;;;0.77;100.00;102017.00;10415532;28;20068;-74
2022/12/02 20:31:55;;;;;;;20.60;10.95;;;;;;;0.76;100.00;102013.56;10417179;28;20067;-73
2022/12/02 20:36:57;;;;;;;22.80;10.80;;;;;;;0.73;100.00;102017.78;10416045;28;20395;-74
2022/12/02 20:42:01;;;;;;;21.30;11.23;;;;;;;0.74;100.00;102025.53;10416368;28;20065;-74
2022/12/02 20:47:03;;;;;;;23.00;11.02;;;;;;;0.74;100.00;102022.09;10416529;28;20063;-75
2022/12/02 20:52:05;;;;;;;18.25;10.32;;;;;;;0.72;100.00;102021.22;10416155;28;20582;-74
2022/12/02 20:57:09;;;;;;;19.98;10.07;;;;;;;0.69;100.00;102022.03;10412766;28;20765;-74
2022/12/02 21:02:11;;;;;;;18.17;10.35;;;;;;;0.69;100.00;102016.88;10414924;28;20086;-74
2022/12/02 21:07:13;;;;;;;17.73;8.40;;;;;;;0.66;100.00;102021.97;10415571;28;20155;-74
2022/12/02 21:12:17;;;;;;;28.13;12.40;;;;;;;0.68;100.00;102020.28;10415590;28;20125;-74
2022/12/02 21:17:19;;;;;;;22.08;10.18;;;;;;;0.64;100.00;102028.75;10414390;28;20344;-76
2022/12/02 21:22:22;;;;;;;25.90;12.53;;;;;;;0.66;100.00;102027.09;10415191;28;20063;-74
2022/12/02 21:27:25;;;;;;;11.07;7.00;;;;;;;0.58;100.00;102021.81;10413277;28;20124;-75
2022/12/02 21:32:28;;;;;;;15.52;9.13;;;;;;;0.58;100.00;102023.53;10414983;28;20077;-73
2022/12/02 21:37:29;;;;;;;12.98;7.78;;;;;;;0.56;100.00;102025.19;10414739;28;20086;-75
2022/12/02 21:42:32;;;;;;;12.83;8.90;;;;;;;0.53;100.00;102022.56;10414616;28;20068;-74
2022/12/02 21:47:34;;;;;;;15.90;9.25;;;;;;;0.54;100.00;102021.75;10414654;28;20070;-75
2022/12/02 21:52:37;;;;;;;10.83;7.37;;;;;;;0.50;100.00;102029.38;10414580;28;20099;-74
2022/12/02 21:57:40;;;;;;;18.73;10.23;;;;;;;0.50;100.00;102026.81;10411934;28;20086;-74
2022/12/02 22:02:43;;;;;;;17.05;9.93;;;;;;;0.50;100.00;102025.94;10414029;28;20145;-74
2022/12/02 22:07:47;;;;;;;11.23;7.65;;;;;;;0.47;100.00;102031.91;10413942;28;20062;-74
2022/12/02 22:12:51;;;;;;;18.58;9.80;;;;;;;0.44;100.00;102024.13;10413926;28;20096;-75
2022/12/02 22:17:53;;;;;;;20.20;10.05;;;;;;;0.41;100.00;102034.34;10413357;28;20133;-75
2022/12/02 22:22:55;;;;;;;17.63;9.40;;;;;;;0.42;100.00;102036.09;10412726;28;20405;-75
2022/12/02 22:27:58;;;;;;;16.75;9.30;;;;;;;0.42;100.00;102036.09;10411441;28;20324;-74
2022/12/02 22:33:01;;;;;;;8.65;5.35;;;;;;;0.38;100.00;102031.72;10421311;28;20470;-74
2022/12/02 22:38:03;;;;;;;18.63;9.70;;;;;;;0.40;100.00;102032.59;10421921;28;20142;-75
2022/12/02 22:43:07;;;;;;;15.93;8.40;;;;;;;0.40;100.00;102030.03;10421535;28;20071;-73
2022/12/02 22:48:09;;;;;;;13.23;7.65;;;;;;;0.39;100.00;102028.31;10421928;28;20059;-74
2022/12/02 22:53:12;;;;;;;15.15;7.65;;;;;;;0.38;100.00;102026.59;10421534;28;20064;-73